sensor_id;sensor_type;location;lat;lon;timestamp;P1;durP1;ratioP1;P2;durP2;ratioP2
11735;SDS011;5924;51.398;7.088;2023-05-16T00:00:06;14.23;;;9.87;;
11735;SDS011;5924;51.398;7.088;2023-05-16T00:02:36;13.52;;;9.27;;
11735;SDS011;5924;51.398;7.088;2023-05-16T00:05:03;10.63;;;8.37;;
11735;SDS011;5924;51.398;7.088;2023-05-16T00:07:31;13.03;;;9.63;;
11735;SDS011;5924;51.398;7.088;2023-05-16T00:09:58;15.80;;;9.67;;
11735;SDS011;5924;51.398;7.088;2023-05-16T00:12:24;13.77;;;9.80;;
11735;SDS011;5924;51.398;7.088;2023-05-16T00:14:50;12.10;;;8.97;;
11735;SDS011;5924;51.398;7.088;2023-05-16T00:17:16;8.17;;;7.27;;
11735;SDS011;5924;51.398;7.088;2023-05-16T00:19:44;10.03;;;7.87;;
11735;SDS011;5924;51.398;7.088;2023-05-16T00:22:13;12.20;;;7.20;;
11735;SDS011;5924;51.398;7.088;2023-05-16T00:24:40;9.10;;;6.80;;
11735;SDS011;5924;51.398;7.088;2023-05-16T00:27:06;12.83;;;8.00;;
11735;SDS011;5924;51.398;7.088;2023-05-16T00:29:32;6.57;;;5.97;;
11735;SDS011;5924;51.398;7.088;2023-05-16T00:32:00;9.10;;;6.90;;
11735;SDS011;5924;51.398;7.088;2023-05-16T00:34:26;7.20;;;6.50;;
11735;SDS011;5924;51.398;7.088;2023-05-16T00:36:52;6.77;;;6.07;;
11735;SDS011;5924;51.398;7.088;2023-05-16T00:39:18;8.80;;;5.85;;
11735;SDS011;5924;51.398;7.088;2023-05-16T00:41:44;5.90;;;5.40;;
11735;SDS011;5924;51.398;7.088;2023-05-16T00:44:10;4.88;;;4.63;;
11735;SDS011;5924;51.398;7.088;2023-05-16T00:46:35;5.80;;;5.30;;
11735;SDS011;5924;51.398;7.088;2023-05-16T00:49:01;5.83;;;5.23;;
11735;SDS011;5924;51.398;7.088;2023-05-16T00:51:27;5.00;;;4.70;;
11735;SDS011;5924;51.398;7.088;2023-05-16T00:53:53;5.23;;;4.93;;
11735;SDS011;5924;51.398;7.088;2023-05-16T00:56:21;5.10;;;4.80;;
11735;SDS011;5924;51.398;7.088;2023-05-16T00:58:47;5.13;;;4.67;;
11735;SDS011;5924;51.398;7.088;2023-05-16T01:01:13;6.67;;;4.90;;
11735;SDS011;5924;51.398;7.088;2023-05-16T01:03:39;5.50;;;5.20;;
11735;SDS011;5924;51.398;7.088;2023-05-16T01:06:06;5.17;;;4.77;;
11735;SDS011;5924;51.398;7.088;2023-05-16T01:08:32;5.87;;;5.47;;
11735;SDS011;5924;51.398;7.088;2023-05-16T01:21:45;8.23;;;5.20;;
11735;SDS011;5924;51.398;7.088;2023-05-16T01:24:17;7.00;;;4.60;;
11735;SDS011;5924;51.398;7.088;2023-05-16T01:27:03;6.13;;;5.83;;
11735;SDS011;5924;51.398;7.088;2023-05-16T01:29:30;6.27;;;5.77;;
11735;SDS011;5924;51.398;7.088;2023-05-16T01:31:56;7.00;;;6.40;;
11735;SDS011;5924;51.398;7.088;2023-05-16T01:34:22;9.05;;;5.60;;
11735;SDS011;5924;51.398;7.088;2023-05-16T01:39:29;5.37;;;4.97;;
11735;SDS011;5924;51.398;7.088;2023-05-16T01:42:06;5.35;;;4.80;;
11735;SDS011;5924;51.398;7.088;2023-05-16T01:44:40;6.80;;;4.17;;
11735;SDS011;5924;51.398;7.088;2023-05-16T01:47:11;3.77;;;3.43;;
11735;SDS011;5924;51.398;7.088;2023-05-16T01:49:40;4.73;;;3.57;;
11735;SDS011;5924;51.398;7.088;2023-05-16T01:52:15;4.73;;;3.73;;
11735;SDS011;5924;51.398;7.088;2023-05-16T01:54:47;10.90;;;4.10;;
11735;SDS011;5924;51.398;7.088;2023-05-16T01:57:17;4.00;;;3.80;;
11735;SDS011;5924;51.398;7.088;2023-05-16T01:59:44;10.57;;;4.60;;
11735;SDS011;5924;51.398;7.088;2023-05-16T02:02:11;6.83;;;4.33;;
11735;SDS011;5924;51.398;7.088;2023-05-16T02:04:37;4.50;;;2.80;;
11735;SDS011;5924;51.398;7.088;2023-05-16T02:07:02;9.80;;;2.80;;
11735;SDS011;5924;51.398;7.088;2023-05-16T02:09:28;7.83;;;2.43;;
11735;SDS011;5924;51.398;7.088;2023-05-16T02:11:54;3.77;;;2.47;;
11735;SDS011;5924;51.398;7.088;2023-05-16T02:14:19;4.23;;;2.43;;
11735;SDS011;5924;51.398;7.088;2023-05-16T02:16:45;6.37;;;2.30;;
11735;SDS011;5924;51.398;7.088;2023-05-16T02:19:12;5.03;;;2.70;;
11735;SDS011;5924;51.398;7.088;2023-05-16T02:21:37;2.73;;;2.43;;
11735;SDS011;5924;51.398;7.088;2023-05-16T02:24:04;2.63;;;2.47;;
11735;SDS011;5924;51.398;7.088;2023-05-16T02:26:30;16.30;;;2.70;;
11735;SDS011;5924;51.398;7.088;2023-05-16T02:28:55;4.37;;;2.70;;
11735;SDS011;5924;51.398;7.088;2023-05-16T02:31:40;4.27;;;2.70;;
11735;SDS011;5924;51.398;7.088;2023-05-16T02:34:06;5.87;;;2.83;;
11735;SDS011;5924;51.398;7.088;2023-05-16T02:36:32;3.30;;;2.77;;
11735;SDS011;5924;51.398;7.088;2023-05-16T02:38:59;10.90;;;3.20;;
11735;SDS011;5924;51.398;7.088;2023-05-16T02:41:26;4.73;;;3.43;;
11735;SDS011;5924;51.398;7.088;2023-05-16T02:43:52;9.83;;;3.30;;
11735;SDS011;5924;51.398;7.088;2023-05-16T02:46:31;6.17;;;3.50;;
11735;SDS011;5924;51.398;7.088;2023-05-16T02:49:00;5.73;;;3.67;;
11735;SDS011;5924;51.398;7.088;2023-05-16T02:51:26;5.87;;;3.93;;
11735;SDS011;5924;51.398;7.088;2023-05-16T02:53:52;8.10;;;3.30;;
11735;SDS011;5924;51.398;7.088;2023-05-16T02:56:20;4.97;;;3.20;;
11735;SDS011;5924;51.398;7.088;2023-05-16T02:58:47;7.17;;;2.57;;
11735;SDS011;5924;51.398;7.088;2023-05-16T03:01:13;6.43;;;3.63;;
11735;SDS011;5924;51.398;7.088;2023-05-16T03:03:40;4.53;;;3.40;;
11735;SDS011;5924;51.398;7.088;2023-05-16T03:06:05;9.03;;;4.70;;
11735;SDS011;5924;51.398;7.088;2023-05-16T03:08:31;14.80;;;4.73;;
11735;SDS011;5924;51.398;7.088;2023-05-16T03:10:57;5.10;;;4.67;;
11735;SDS011;5924;51.398;7.088;2023-05-16T03:13:23;5.80;;;4.03;;
11735;SDS011;5924;51.398;7.088;2023-05-16T03:15:49;13.73;;;3.90;;
11735;SDS011;5924;51.398;7.088;2023-05-16T03:18:14;24.60;;;4.82;;
11735;SDS011;5924;51.398;7.088;2023-05-16T03:20:40;2.97;;;2.77;;
11735;SDS011;5924;51.398;7.088;2023-05-16T03:23:06;6.80;;;3.13;;
11735;SDS011;5924;51.398;7.088;2023-05-16T03:25:35;14.93;;;4.13;;
11735;SDS011;5924;51.398;7.088;2023-05-16T03:28:02;18.15;;;3.58;;
11735;SDS011;5924;51.398;7.088;2023-05-16T03:30:29;7.43;;;2.55;;
11735;SDS011;5924;51.398;7.088;2023-05-16T03:32:54;15.23;;;3.20;;
11735;SDS011;5924;51.398;7.088;2023-05-16T03:35:20;8.43;;;3.80;;
11735;SDS011;5924;51.398;7.088;2023-05-16T03:37:46;6.67;;;2.90;;
11735;SDS011;5924;51.398;7.088;2023-05-16T03:40:12;34.23;;;3.70;;
11735;SDS011;5924;51.398;7.088;2023-05-16T03:42:38;17.43;;;3.80;;
11735;SDS011;5924;51.398;7.088;2023-05-16T03:45:04;13.63;;;2.50;;
11735;SDS011;5924;51.398;7.088;2023-05-16T03:47:31;18.13;;;3.10;;
11735;SDS011;5924;51.398;7.088;2023-05-16T03:49:56;9.23;;;3.07;;
11735;SDS011;5924;51.398;7.088;2023-05-16T03:52:22;14.87;;;2.93;;
11735;SDS011;5924;51.398;7.088;2023-05-16T03:54:48;9.20;;;2.50;;
11735;SDS011;5924;51.398;7.088;2023-05-16T03:57:13;7.20;;;2.20;;
11735;SDS011;5924;51.398;7.088;2023-05-16T03:59:40;9.93;;;3.00;;
11735;SDS011;5924;51.398;7.088;2023-05-16T04:02:05;8.70;;;3.20;;
11735;SDS011;5924;51.398;7.088;2023-05-16T04:04:31;14.77;;;3.33;;
11735;SDS011;5924;51.398;7.088;2023-05-16T04:06:56;6.00;;;2.57;;
11735;SDS011;5924;51.398;7.088;2023-05-16T04:09:22;5.37;;;2.80;;
11735;SDS011;5924;51.398;7.088;2023-05-16T04:11:48;9.70;;;3.63;;
11735;SDS011;5924;51.398;7.088;2023-05-16T04:14:14;5.20;;;2.20;;
11735;SDS011;5924;51.398;7.088;2023-05-16T04:16:40;20.93;;;2.60;;
11735;SDS011;5924;51.398;7.088;2023-05-16T04:19:06;16.33;;;3.33;;
11735;SDS011;5924;51.398;7.088;2023-05-16T04:21:32;14.80;;;2.63;;
11735;SDS011;5924;51.398;7.088;2023-05-16T04:23:57;4.97;;;2.17;;
11735;SDS011;5924;51.398;7.088;2023-05-16T04:26:23;4.80;;;1.90;;
11735;SDS011;5924;51.398;7.088;2023-05-16T04:28:49;12.93;;;3.20;;
11735;SDS011;5924;51.398;7.088;2023-05-16T04:31:15;17.27;;;3.67;;
11735;SDS011;5924;51.398;7.088;2023-05-16T04:33:41;13.17;;;3.27;;
11735;SDS011;5924;51.398;7.088;2023-05-16T04:36:07;6.50;;;2.40;;
11735;SDS011;5924;51.398;7.088;2023-05-16T04:38:32;10.43;;;2.50;;
11735;SDS011;5924;51.398;7.088;2023-05-16T04:40:58;7.90;;;2.70;;
11735;SDS011;5924;51.398;7.088;2023-05-16T04:43:25;15.30;;;2.72;;
11735;SDS011;5924;51.398;7.088;2023-05-16T04:45:51;4.10;;;1.90;;
11735;SDS011;5924;51.398;7.088;2023-05-16T04:48:18;10.63;;;2.87;;
11735;SDS011;5924;51.398;7.088;2023-05-16T04:50:44;2.58;;;2.08;;
11735;SDS011;5924;51.398;7.088;2023-05-16T04:53:09;8.30;;;2.03;;
11735;SDS011;5924;51.398;7.088;2023-05-16T04:55:35;5.90;;;2.37;;
11735;SDS011;5924;51.398;7.088;2023-05-16T04:58:01;10.30;;;3.60;;
11735;SDS011;5924;51.398;7.088;2023-05-16T05:00:27;8.60;;;3.00;;
11735;SDS011;5924;51.398;7.088;2023-05-16T05:02:53;8.83;;;2.80;;
11735;SDS011;5924;51.398;7.088;2023-05-16T05:05:18;4.77;;;2.10;;
11735;SDS011;5924;51.398;7.088;2023-05-16T05:07:45;5.67;;;2.00;;
11735;SDS011;5924;51.398;7.088;2023-05-16T05:10:10;12.00;;;3.00;;
11735;SDS011;5924;51.398;7.088;2023-05-16T05:12:36;7.03;;;2.70;;
11735;SDS011;5924;51.398;7.088;2023-05-16T05:15:02;11.90;;;2.43;;
11735;SDS011;5924;51.398;7.088;2023-05-16T05:17:28;4.50;;;2.03;;
11735;SDS011;5924;51.398;7.088;2023-05-16T05:19:54;2.33;;;2.03;;
11735;SDS011;5924;51.398;7.088;2023-05-16T05:22:20;6.17;;;2.13;;
11735;SDS011;5924;51.398;7.088;2023-05-16T05:24:45;12.13;;;2.40;;
11735;SDS011;5924;51.398;7.088;2023-05-16T05:27:11;10.50;;;2.17;;
11735;SDS011;5924;51.398;7.088;2023-05-16T05:29:37;15.97;;;4.13;;
11735;SDS011;5924;51.398;7.088;2023-05-16T05:32:03;13.97;;;3.13;;
11735;SDS011;5924;51.398;7.088;2023-05-16T05:34:29;3.90;;;2.23;;
11735;SDS011;5924;51.398;7.088;2023-05-16T05:36:55;8.93;;;2.07;;
11735;SDS011;5924;51.398;7.088;2023-05-16T05:39:21;12.53;;;2.80;;
11735;SDS011;5924;51.398;7.088;2023-05-16T05:41:47;4.50;;;2.00;;
11735;SDS011;5924;51.398;7.088;2023-05-16T05:44:12;11.40;;;2.50;;
11735;SDS011;5924;51.398;7.088;2023-05-16T05:46:38;3.30;;;2.23;;
11735;SDS011;5924;51.398;7.088;2023-05-16T05:49:04;7.23;;;2.43;;
11735;SDS011;5924;51.398;7.088;2023-05-16T05:51:30;8.53;;;2.40;;
11735;SDS011;5924;51.398;7.088;2023-05-16T05:53:56;6.60;;;3.10;;
11735;SDS011;5924;51.398;7.088;2023-05-16T05:56:22;10.03;;;2.40;;
11735;SDS011;5924;51.398;7.088;2023-05-16T05:58:49;5.70;;;2.20;;
11735;SDS011;5924;51.398;7.088;2023-05-16T06:01:15;14.97;;;2.40;;
11735;SDS011;5924;51.398;7.088;2023-05-16T06:03:41;3.10;;;1.70;;
11735;SDS011;5924;51.398;7.088;2023-05-16T06:06:07;6.07;;;2.27;;
11735;SDS011;5924;51.398;7.088;2023-05-16T06:08:33;10.93;;;3.40;;
11735;SDS011;5924;51.398;7.088;2023-05-16T06:10:59;3.47;;;2.10;;
11735;SDS011;5924;51.398;7.088;2023-05-16T06:13:25;14.83;;;2.30;;
11735;SDS011;5924;51.398;7.088;2023-05-16T06:15:51;7.70;;;2.50;;
11735;SDS011;5924;51.398;7.088;2023-05-16T06:18:17;6.10;;;2.10;;
11735;SDS011;5924;51.398;7.088;2023-05-16T06:20:44;3.50;;;1.57;;
11735;SDS011;5924;51.398;7.088;2023-05-16T06:23:09;8.27;;;2.20;;
11735;SDS011;5924;51.398;7.088;2023-05-16T06:25:35;5.10;;;2.30;;
11735;SDS011;5924;51.398;7.088;2023-05-16T06:28:01;9.03;;;2.33;;
11735;SDS011;5924;51.398;7.088;2023-05-16T06:30:26;7.23;;;2.27;;
11735;SDS011;5924;51.398;7.088;2023-05-16T06:32:52;7.03;;;2.10;;
11735;SDS011;5924;51.398;7.088;2023-05-16T06:35:18;12.83;;;2.63;;
11735;SDS011;5924;51.398;7.088;2023-05-16T06:37:43;10.27;;;2.53;;
11735;SDS011;5924;51.398;7.088;2023-05-16T06:40:10;6.33;;;2.77;;
11735;SDS011;5924;51.398;7.088;2023-05-16T06:42:36;7.45;;;2.58;;
11735;SDS011;5924;51.398;7.088;2023-05-16T06:45:02;5.30;;;2.70;;
11735;SDS011;5924;51.398;7.088;2023-05-16T06:47:28;5.60;;;2.30;;
11735;SDS011;5924;51.398;7.088;2023-05-16T06:49:53;7.37;;;2.40;;
11735;SDS011;5924;51.398;7.088;2023-05-16T06:52:19;7.00;;;2.57;;
11735;SDS011;5924;51.398;7.088;2023-05-16T06:54:45;7.88;;;2.17;;
11735;SDS011;5924;51.398;7.088;2023-05-16T06:57:11;3.90;;;1.90;;
11735;SDS011;5924;51.398;7.088;2023-05-16T06:59:37;5.80;;;1.90;;
11735;SDS011;5924;51.398;7.088;2023-05-16T07:02:03;3.30;;;1.73;;
11735;SDS011;5924;51.398;7.088;2023-05-16T07:04:29;3.90;;;1.83;;
11735;SDS011;5924;51.398;7.088;2023-05-16T07:06:55;10.77;;;2.07;;
11735;SDS011;5924;51.398;7.088;2023-05-16T07:09:21;4.90;;;1.50;;
11735;SDS011;5924;51.398;7.088;2023-05-16T07:11:46;8.67;;;4.07;;
11735;SDS011;5924;51.398;7.088;2023-05-16T07:14:12;6.20;;;1.83;;
11735;SDS011;5924;51.398;7.088;2023-05-16T07:16:38;5.53;;;1.43;;
11735;SDS011;5924;51.398;7.088;2023-05-16T07:19:03;3.73;;;1.50;;
11735;SDS011;5924;51.398;7.088;2023-05-16T07:21:29;8.30;;;1.70;;
11735;SDS011;5924;51.398;7.088;2023-05-16T07:23:55;8.57;;;1.40;;
11735;SDS011;5924;51.398;7.088;2023-05-16T07:26:21;12.30;;;1.83;;
11735;SDS011;5924;51.398;7.088;2023-05-16T07:28:51;3.27;;;1.20;;
11735;SDS011;5924;51.398;7.088;2023-05-16T07:31:16;5.17;;;1.10;;
11735;SDS011;5924;51.398;7.088;2023-05-16T07:33:43;5.40;;;1.90;;
11735;SDS011;5924;51.398;7.088;2023-05-16T07:36:10;5.50;;;2.17;;
11735;SDS011;5924;51.398;7.088;2023-05-16T07:38:37;4.20;;;1.33;;
11735;SDS011;5924;51.398;7.088;2023-05-16T07:41:02;5.80;;;1.97;;
11735;SDS011;5924;51.398;7.088;2023-05-16T07:43:28;3.33;;;1.00;;
11735;SDS011;5924;51.398;7.088;2023-05-16T07:45:54;7.10;;;1.60;;
11735;SDS011;5924;51.398;7.088;2023-05-16T07:48:19;3.33;;;1.30;;
11735;SDS011;5924;51.398;7.088;2023-05-16T07:50:45;2.00;;;1.40;;
11735;SDS011;5924;51.398;7.088;2023-05-16T07:53:11;5.10;;;1.37;;
11735;SDS011;5924;51.398;7.088;2023-05-16T07:55:37;4.03;;;1.00;;
11735;SDS011;5924;51.398;7.088;2023-05-16T07:58:02;5.23;;;1.37;;
11735;SDS011;5924;51.398;7.088;2023-05-16T08:00:28;4.60;;;1.53;;
11735;SDS011;5924;51.398;7.088;2023-05-16T08:02:54;1.63;;;1.20;;
11735;SDS011;5924;51.398;7.088;2023-05-16T08:05:21;10.30;;;1.37;;
11735;SDS011;5924;51.398;7.088;2023-05-16T08:07:47;3.30;;;1.17;;
11735;SDS011;5924;51.398;7.088;2023-05-16T08:10:13;12.90;;;1.43;;
11735;SDS011;5924;51.398;7.088;2023-05-16T08:12:39;3.37;;;1.10;;
11735;SDS011;5924;51.398;7.088;2023-05-16T08:15:05;3.47;;;1.70;;
11735;SDS011;5924;51.398;7.088;2023-05-16T08:17:31;3.40;;;1.37;;
11735;SDS011;5924;51.398;7.088;2023-05-16T08:19:57;1.43;;;1.10;;
11735;SDS011;5924;51.398;7.088;2023-05-16T08:22:24;2.30;;;1.23;;
11735;SDS011;5924;51.398;7.088;2023-05-16T08:24:50;1.33;;;1.23;;
11735;SDS011;5924;51.398;7.088;2023-05-16T08:27:16;1.93;;;1.37;;
11735;SDS011;5924;51.398;7.088;2023-05-16T08:29:41;1.47;;;1.00;;
11735;SDS011;5924;51.398;7.088;2023-05-16T08:32:10;1.80;;;0.87;;
11735;SDS011;5924;51.398;7.088;2023-05-16T08:34:36;1.70;;;1.37;;
11735;SDS011;5924;51.398;7.088;2023-05-16T08:37:01;3.60;;;1.07;;
11735;SDS011;5924;51.398;7.088;2023-05-16T08:39:27;1.53;;;0.90;;
11735;SDS011;5924;51.398;7.088;2023-05-16T08:42:05;6.73;;;1.13;;
11735;SDS011;5924;51.398;7.088;2023-05-16T08:44:32;2.70;;;1.10;;
11735;SDS011;5924;51.398;7.088;2023-05-16T08:47:00;2.17;;;1.23;;
11735;SDS011;5924;51.398;7.088;2023-05-16T08:49:42;3.87;;;0.97;;
11735;SDS011;5924;51.398;7.088;2023-05-16T08:52:18;3.43;;;1.23;;
11735;SDS011;5924;51.398;7.088;2023-05-16T08:54:46;5.47;;;1.33;;
11735;SDS011;5924;51.398;7.088;2023-05-16T08:57:14;4.78;;;1.02;;
11735;SDS011;5924;51.398;7.088;2023-05-16T08:59:40;0.93;;;0.93;;
11735;SDS011;5924;51.398;7.088;2023-05-16T09:02:07;6.13;;;1.03;;
11735;SDS011;5924;51.398;7.088;2023-05-16T09:04:33;5.07;;;0.93;;
11735;SDS011;5924;51.398;7.088;2023-05-16T09:07:00;3.07;;;1.00;;
11735;SDS011;5924;51.398;7.088;2023-05-16T09:09:26;5.30;;;0.93;;
11735;SDS011;5924;51.398;7.088;2023-05-16T09:11:52;2.33;;;0.90;;
11735;SDS011;5924;51.398;7.088;2023-05-16T09:14:18;2.40;;;0.97;;
11735;SDS011;5924;51.398;7.088;2023-05-16T09:16:44;1.73;;;0.80;;
11735;SDS011;5924;51.398;7.088;2023-05-16T09:19:26;1.10;;;1.00;;
11735;SDS011;5924;51.398;7.088;2023-05-16T09:22:13;1.90;;;0.87;;
11735;SDS011;5924;51.398;7.088;2023-05-16T09:24:40;0.80;;;0.80;;
11735;SDS011;5924;51.398;7.088;2023-05-16T09:27:10;2.70;;;0.80;;
11735;SDS011;5924;51.398;7.088;2023-05-16T09:29:39;1.13;;;0.60;;
11735;SDS011;5924;51.398;7.088;2023-05-16T09:32:12;5.07;;;1.13;;
11735;SDS011;5924;51.398;7.088;2023-05-16T09:37:13;1.53;;;1.03;;
11735;SDS011;5924;51.398;7.088;2023-05-16T09:39:47;1.88;;;0.75;;
11735;SDS011;5924;51.398;7.088;2023-05-16T09:42:18;2.78;;;0.90;;
11735;SDS011;5924;51.398;7.088;2023-05-16T09:44:53;1.80;;;1.20;;
11735;SDS011;5924;51.398;7.088;2023-05-16T09:47:20;5.00;;;0.87;;
11735;SDS011;5924;51.398;7.088;2023-05-16T09:49:46;3.80;;;1.10;;
11735;SDS011;5924;51.398;7.088;2023-05-16T09:52:17;4.57;;;0.77;;
11735;SDS011;5924;51.398;7.088;2023-05-16T09:54:43;1.67;;;0.70;;
11735;SDS011;5924;51.398;7.088;2023-05-16T09:57:16;1.63;;;0.70;;
11735;SDS011;5924;51.398;7.088;2023-05-16T09:59:42;1.90;;;0.87;;
11735;SDS011;5924;51.398;7.088;2023-05-16T10:02:10;0.50;;;0.50;;
11735;SDS011;5924;51.398;7.088;2023-05-16T10:04:37;3.60;;;0.70;;
11735;SDS011;5924;51.398;7.088;2023-05-16T10:07:03;2.20;;;0.87;;
11735;SDS011;5924;51.398;7.088;2023-05-16T10:09:32;2.70;;;0.90;;
11735;SDS011;5924;51.398;7.088;2023-05-16T10:12:02;1.90;;;0.70;;
11735;SDS011;5924;51.398;7.088;2023-05-16T10:14:34;2.13;;;1.40;;
11735;SDS011;5924;51.398;7.088;2023-05-16T10:17:05;2.33;;;0.80;;
11735;SDS011;5924;51.398;7.088;2023-05-16T10:19:34;1.57;;;0.93;;
11735;SDS011;5924;51.398;7.088;2023-05-16T10:22:03;2.63;;;1.00;;
11735;SDS011;5924;51.398;7.088;2023-05-16T10:24:38;1.63;;;1.00;;
11735;SDS011;5924;51.398;7.088;2023-05-16T10:27:19;3.00;;;1.20;;
11735;SDS011;5924;51.398;7.088;2023-05-16T10:29:46;0.93;;;0.93;;
11735;SDS011;5924;51.398;7.088;2023-05-16T10:32:13;3.47;;;0.90;;
11735;SDS011;5924;51.398;7.088;2023-05-16T10:34:40;3.80;;;1.00;;
11735;SDS011;5924;51.398;7.088;2023-05-16T10:37:06;2.40;;;1.63;;
11735;SDS011;5924;51.398;7.088;2023-05-16T10:39:33;6.17;;;0.83;;
11735;SDS011;5924;51.398;7.088;2023-05-16T10:42:01;2.87;;;1.10;;
11735;SDS011;5924;51.398;7.088;2023-05-16T10:44:27;1.07;;;0.60;;
11735;SDS011;5924;51.398;7.088;2023-05-16T10:46:57;8.60;;;0.90;;
11735;SDS011;5924;51.398;7.088;2023-05-16T10:49:24;0.75;;;0.75;;
11735;SDS011;5924;51.398;7.088;2023-05-16T10:52:04;3.70;;;0.93;;
11735;SDS011;5924;51.398;7.088;2023-05-16T10:54:34;3.17;;;1.03;;
11735;SDS011;5924;51.398;7.088;2023-05-16T10:57:16;3.35;;;1.05;;
11735;SDS011;5924;51.398;7.088;2023-05-16T10:59:48;3.23;;;0.90;;
11735;SDS011;5924;51.398;7.088;2023-05-16T11:02:28;4.23;;;1.40;;
11735;SDS011;5924;51.398;7.088;2023-05-16T11:04:59;5.75;;;1.00;;
11735;SDS011;5924;51.398;7.088;2023-05-16T11:07:34;3.83;;;0.93;;
11735;SDS011;5924;51.398;7.088;2023-05-16T11:10:10;0.93;;;0.93;;
11735;SDS011;5924;51.398;7.088;2023-05-16T11:17:44;2.30;;;0.63;;
11735;SDS011;5924;51.398;7.088;2023-05-16T11:25:41;7.00;;;1.20;;
11735;SDS011;5924;51.398;7.088;2023-05-16T11:28:09;2.03;;;1.30;;
11735;SDS011;5924;51.398;7.088;2023-05-16T11:30:45;1.77;;;0.82;;
11735;SDS011;5924;51.398;7.088;2023-05-16T11:33:13;5.23;;;1.10;;
11735;SDS011;5924;51.398;7.088;2023-05-16T11:35:40;1.67;;;0.80;;
11735;SDS011;5924;51.398;7.088;2023-05-16T11:38:11;3.65;;;1.02;;
11735;SDS011;5924;51.398;7.088;2023-05-16T11:40:40;0.70;;;0.63;;
11735;SDS011;5924;51.398;7.088;2023-05-16T11:43:07;2.33;;;0.77;;
11735;SDS011;5924;51.398;7.088;2023-05-16T11:45:33;1.37;;;1.00;;
11735;SDS011;5924;51.398;7.088;2023-05-16T11:48:00;3.13;;;1.00;;
11735;SDS011;5924;51.398;7.088;2023-05-16T11:50:28;1.10;;;1.10;;
11735;SDS011;5924;51.398;7.088;2023-05-16T11:52:54;1.27;;;1.00;;
11735;SDS011;5924;51.398;7.088;2023-05-16T11:55:29;1.37;;;0.77;;
11735;SDS011;5924;51.398;7.088;2023-05-16T11:57:59;1.83;;;0.60;;
11735;SDS011;5924;51.398;7.088;2023-05-16T12:00:26;1.67;;;0.90;;
11735;SDS011;5924;51.398;7.088;2023-05-16T12:02:52;0.50;;;0.50;;
11735;SDS011;5924;51.398;7.088;2023-05-16T12:05:19;1.63;;;0.57;;
11735;SDS011;5924;51.398;7.088;2023-05-16T12:07:49;0.65;;;0.65;;
11735;SDS011;5924;51.398;7.088;2023-05-16T12:10:18;1.20;;;0.50;;
11735;SDS011;5924;51.398;7.088;2023-05-16T12:12:49;0.40;;;0.40;;
11735;SDS011;5924;51.398;7.088;2023-05-16T12:15:16;1.13;;;0.50;;
11735;SDS011;5924;51.398;7.088;2023-05-16T12:17:43;0.70;;;0.70;;
11735;SDS011;5924;51.398;7.088;2023-05-16T12:20:09;0.97;;;0.50;;
11735;SDS011;5924;51.398;7.088;2023-05-16T12:22:38;5.50;;;0.77;;
11735;SDS011;5924;51.398;7.088;2023-05-16T12:25:19;0.77;;;0.77;;
11735;SDS011;5924;51.398;7.088;2023-05-16T12:27:46;0.60;;;0.60;;
11735;SDS011;5924;51.398;7.088;2023-05-16T12:30:12;0.40;;;0.40;;
11735;SDS011;5924;51.398;7.088;2023-05-16T12:32:40;2.10;;;1.10;;
11735;SDS011;5924;51.398;7.088;2023-05-16T12:35:06;1.90;;;0.80;;
11735;SDS011;5924;51.398;7.088;2023-05-16T12:37:34;2.67;;;1.00;;
11735;SDS011;5924;51.398;7.088;2023-05-16T12:40:00;1.85;;;0.75;;
11735;SDS011;5924;51.398;7.088;2023-05-16T12:42:28;1.85;;;0.93;;
11735;SDS011;5924;51.398;7.088;2023-05-16T12:44:54;0.50;;;0.50;;
11735;SDS011;5924;51.398;7.088;2023-05-16T12:47:21;0.93;;;0.60;;
11735;SDS011;5924;51.398;7.088;2023-05-16T12:49:47;2.10;;;0.87;;
11735;SDS011;5924;51.398;7.088;2023-05-16T12:52:18;4.70;;;0.77;;
11735;SDS011;5924;51.398;7.088;2023-05-16T12:54:45;1.43;;;0.70;;
11735;SDS011;5924;51.398;7.088;2023-05-16T12:57:12;3.93;;;0.83;;
11735;SDS011;5924;51.398;7.088;2023-05-16T12:59:38;1.23;;;0.63;;
11735;SDS011;5924;51.398;7.088;2023-05-16T13:02:03;0.90;;;0.88;;
11735;SDS011;5924;51.398;7.088;2023-05-16T13:04:29;3.50;;;0.70;;
11735;SDS011;5924;51.398;7.088;2023-05-16T13:06:55;3.93;;;0.80;;
11735;SDS011;5924;51.398;7.088;2023-05-16T13:09:21;1.70;;;0.87;;
11735;SDS011;5924;51.398;7.088;2023-05-16T13:11:47;0.40;;;0.40;;
11735;SDS011;5924;51.398;7.088;2023-05-16T13:14:14;2.60;;;0.73;;
11735;SDS011;5924;51.398;7.088;2023-05-16T13:16:41;2.27;;;0.70;;
11735;SDS011;5924;51.398;7.088;2023-05-16T13:19:07;0.63;;;0.63;;
11735;SDS011;5924;51.398;7.088;2023-05-16T13:21:33;0.50;;;0.50;;
11735;SDS011;5924;51.398;7.088;2023-05-16T13:23:59;2.33;;;0.90;;
11735;SDS011;5924;51.398;7.088;2023-05-16T13:26:25;0.53;;;0.53;;
11735;SDS011;5924;51.398;7.088;2023-05-16T13:28:51;1.13;;;0.50;;
11735;SDS011;5924;51.398;7.088;2023-05-16T13:31:19;0.70;;;0.70;;
11735;SDS011;5924;51.398;7.088;2023-05-16T13:33:46;0.87;;;0.70;;
11735;SDS011;5924;51.398;7.088;2023-05-16T13:36:11;0.80;;;0.80;;
11735;SDS011;5924;51.398;7.088;2023-05-16T13:38:37;3.13;;;0.80;;
11735;SDS011;5924;51.398;7.088;2023-05-16T13:41:03;0.77;;;0.77;;
11735;SDS011;5924;51.398;7.088;2023-05-16T13:43:28;2.50;;;0.73;;
11735;SDS011;5924;51.398;7.088;2023-05-16T13:45:54;2.73;;;0.83;;
11735;SDS011;5924;51.398;7.088;2023-05-16T13:48:21;0.93;;;0.93;;
11735;SDS011;5924;51.398;7.088;2023-05-16T13:50:46;1.00;;;1.00;;
11735;SDS011;5924;51.398;7.088;2023-05-16T13:53:12;2.43;;;0.77;;
11735;SDS011;5924;51.398;7.088;2023-05-16T13:55:38;0.80;;;0.77;;
11735;SDS011;5924;51.398;7.088;2023-05-16T13:58:03;0.80;;;0.68;;
11735;SDS011;5924;51.398;7.088;2023-05-16T14:00:29;0.83;;;0.80;;
11735;SDS011;5924;51.398;7.088;2023-05-16T14:02:55;0.80;;;0.80;;
11735;SDS011;5924;51.398;7.088;2023-05-16T14:05:20;0.80;;;0.80;;
11735;SDS011;5924;51.398;7.088;2023-05-16T14:07:46;1.33;;;0.80;;
11735;SDS011;5924;51.398;7.088;2023-05-16T14:10:12;2.40;;;0.82;;
11735;SDS011;5924;51.398;7.088;2023-05-16T14:12:38;0.60;;;0.60;;
11735;SDS011;5924;51.398;7.088;2023-05-16T14:15:04;1.67;;;1.00;;
11735;SDS011;5924;51.398;7.088;2023-05-16T14:17:31;2.22;;;0.88;;
11735;SDS011;5924;51.398;7.088;2023-05-16T14:19:57;1.13;;;0.90;;
11735;SDS011;5924;51.398;7.088;2023-05-16T14:22:22;1.47;;;0.83;;
11735;SDS011;5924;51.398;7.088;2023-05-16T14:24:48;1.43;;;1.20;;
11735;SDS011;5924;51.398;7.088;2023-05-16T14:27:14;1.53;;;0.83;;
11735;SDS011;5924;51.398;7.088;2023-05-16T14:29:41;1.70;;;1.00;;
11735;SDS011;5924;51.398;7.088;2023-05-16T14:32:08;3.43;;;1.30;;
11735;SDS011;5924;51.398;7.088;2023-05-16T14:34:35;4.27;;;0.83;;
11735;SDS011;5924;51.398;7.088;2023-05-16T14:37:00;0.93;;;0.80;;
11735;SDS011;5924;51.398;7.088;2023-05-16T14:39:26;1.47;;;0.90;;
11735;SDS011;5924;51.398;7.088;2023-05-16T14:41:52;0.97;;;0.83;;
11735;SDS011;5924;51.398;7.088;2023-05-16T14:44:17;5.07;;;1.03;;
11735;SDS011;5924;51.398;7.088;2023-05-16T14:46:45;0.70;;;0.70;;
11735;SDS011;5924;51.398;7.088;2023-05-16T14:49:11;6.53;;;1.07;;
11735;SDS011;5924;51.398;7.088;2023-05-16T14:51:37;0.82;;;0.82;;
11735;SDS011;5924;51.398;7.088;2023-05-16T14:54:03;0.80;;;0.80;;
11735;SDS011;5924;51.398;7.088;2023-05-16T14:56:29;1.80;;;1.20;;
11735;SDS011;5924;51.398;7.088;2023-05-16T14:58:56;1.60;;;1.10;;
11735;SDS011;5924;51.398;7.088;2023-05-16T15:01:21;3.03;;;1.10;;
11735;SDS011;5924;51.398;7.088;2023-05-16T15:03:47;1.53;;;0.70;;
11735;SDS011;5924;51.398;7.088;2023-05-16T15:06:12;1.77;;;1.37;;
11735;SDS011;5924;51.398;7.088;2023-05-16T15:08:38;7.97;;;1.53;;
11735;SDS011;5924;51.398;7.088;2023-05-16T15:11:04;2.43;;;0.93;;
11735;SDS011;5924;51.398;7.088;2023-05-16T15:13:30;5.93;;;1.33;;
11735;SDS011;5924;51.398;7.088;2023-05-16T15:15:55;3.80;;;0.63;;
11735;SDS011;5924;51.398;7.088;2023-05-16T15:18:22;1.00;;;0.90;;
11735;SDS011;5924;51.398;7.088;2023-05-16T15:20:48;0.93;;;0.93;;
11735;SDS011;5924;51.398;7.088;2023-05-16T15:23:16;3.10;;;1.47;;
11735;SDS011;5924;51.398;7.088;2023-05-16T15:25:41;4.70;;;1.17;;